In Rescue
 
Open Full Screen Window  High Contrast Mode
Wind Gusting 00 knots
14
October 25, 2021 3:48 PM CDT
Weather Information
Wind Direction
  120 °
Wind Speed
  14 kt (16 mph)
Wind Gust
  00 kt (0 mph)
Altimeter
30.07 in
Visibility
10 SM
Temperature
11° C
52° F
Dewpoint
-01° C
30° F
Humidity
44%
1hr Rain Fall
00.00 in.
24hr Rain Fall
00.00 in.
Sky Condition
Clear
VFR

METAR KJKJ 252048Z AUTO 12014KT 10SM CLR 11/M01 A3007 RMK AO2

FAA Disclaimer: The data displayed is for advisory purposes only and is not to be used for flight planning or operations.